createdAt,value
2023-02-24T00:01:28.556Z,100167.66
2023-02-24T00:06:44.008Z,100167.19
2023-02-24T00:09:35.205Z,100170.13
2023-02-24T00:12:26.722Z,100172.63
2023-02-24T00:14:59.288Z,100156.69
2023-02-24T00:17:33.220Z,100166.72
2023-02-24T00:20:02.060Z,100162.31
2023-02-24T00:22:34.732Z,100160.81
2023-02-24T00:25:04.020Z,100158.09
2023-02-24T00:27:51.937Z,100160.97
2023-02-24T00:30:33.825Z,100154.53
2023-02-24T00:33:05.910Z,100148.44
2023-02-24T00:35:37.197Z,100150.47
2023-02-24T00:38:03.804Z,100154.03
2023-02-24T00:40:39.311Z,100148.13
2023-02-24T00:43:23.042Z,100131.81
2023-02-24T00:45:53.656Z,100126.75
2023-02-24T00:48:29.712Z,100126.28
2023-02-24T00:51:00.964Z,100131.72
2023-02-24T00:53:32.313Z,100132.56
2023-02-24T00:56:18.417Z,100131.88
2023-02-24T00:58:51.099Z,100130.19
2023-02-24T01:01:27.641Z,100119.03
2023-02-24T01:03:57.145Z,100125.34
2023-02-24T01:06:29.349Z,100124.84
2023-02-24T01:09:09.793Z,100115.00
2023-02-24T01:12:03.168Z,100120.59
2023-02-24T01:14:37.444Z,100116.75
2023-02-24T01:17:19.510Z,100110.66
2023-02-24T01:19:57.453Z,100105.28
2023-02-24T01:22:29.631Z,100097.41
2023-02-24T01:25:30.673Z,100101.13
2023-02-24T01:28:00.002Z,100096.13
2023-02-24T01:30:30.445Z,100095.28
2023-02-24T01:32:59.420Z,100094.31
2023-02-24T01:35:30.782Z,100096.38
2023-02-24T01:38:06.443Z,100086.56
2023-02-24T01:40:48.675Z,100082.03
2023-02-24T01:46:05.459Z,100074.97
2023-02-24T01:48:34.444Z,100077.69
2023-02-24T01:51:03.338Z,100085.53
2023-02-24T01:53:30.224Z,100073.44
2023-02-24T01:56:02.162Z,100078.88
2023-02-24T01:58:30.388Z,100078.47
2023-02-24T02:01:09.288Z,100072.00
2023-02-24T02:03:44.733Z,100075.56
2023-02-24T02:06:19.769Z,100072.00
2023-02-24T02:08:53.574Z,100069.28
2023-02-24T02:11:35.142Z,100066.59
2023-02-24T02:14:23.150Z,100071.84
2023-02-24T02:17:17.974Z,100062.47
2023-02-24T02:19:47.354Z,100060.44
2023-02-24T02:22:49.312Z,100058.38
2023-02-24T02:25:29.264Z,100055.28
2023-02-24T02:28:11.036Z,100059.53
2023-02-24T02:30:56.330Z,100053.78
2023-02-24T02:33:49.971Z,100058.84
2023-02-24T02:36:19.513Z,100042.41
2023-02-24T02:39:00.944Z,100042.41
2023-02-24T02:42:22.343Z,100040.69
2023-02-24T02:45:10.960Z,100034.59
2023-02-24T02:48:15.207Z,100026.44
2023-02-24T02:53:59.985Z,100035.63
2023-02-24T03:00:21.819Z,100024.78
2023-02-24T03:03:02.537Z,100018.19
2023-02-24T03:05:55.593Z,100020.63
2023-02-24T03:08:28.499Z,100018.06
2023-02-24T03:11:02.419Z,100011.16
2023-02-24T03:13:44.630Z,100018.81
2023-02-24T03:16:13.763Z,100016.81
2023-02-24T03:19:03.967Z,100016.81
2023-02-24T03:21:33.590Z,100006.31
2023-02-24T03:24:10.969Z,100014.63
2023-02-24T03:26:50.147Z,100011.91
2023-02-24T03:29:48.985Z,100010.41
2023-02-24T03:36:07.045Z,100003.84
2023-02-24T03:38:53.980Z,100007.75
2023-02-24T03:41:31.543Z,99999.91
2023-02-24T03:44:07.308Z,100001.31
2023-02-24T03:46:42.646Z,100004.88
2023-02-24T03:49:17.049Z,100005.50
2023-02-24T03:52:03.486Z,100008.75
2023-02-24T03:55:17.526Z,100011.63
2023-02-24T03:58:06.218Z,100000.28
2023-02-24T04:01:14.078Z,100003.84
2023-02-24T04:04:07.033Z,99998.59
2023-02-24T04:06:47.375Z,100002.81
2023-02-24T04:09:37.506Z,99989.59
2023-02-24T04:12:18.603Z,99995.88
2023-02-24T04:15:25.372Z,99999.59
2023-02-24T04:18:16.462Z,99998.09
2023-02-24T04:21:20.439Z,99997.25
2023-02-24T04:23:47.961Z,99990.44
2023-02-24T04:26:20.269Z,99991.81
2023-02-24T04:28:59.649Z,99987.25
2023-02-24T04:34:47.731Z,99985.56
2023-02-24T04:37:30.862Z,99976.75
2023-02-24T04:40:30.335Z,99975.06
2023-02-24T04:43:05.448Z,99971.50
2023-02-24T04:45:40.550Z,99969.81
2023-02-24T04:48:19.883Z,99962.50
2023-02-24T04:51:11.834Z,99962.72
2023-02-24T04:53:49.115Z,99958.31
2023-02-24T04:56:31.817Z,99956.97
2023-02-24T04:59:21.729Z,99949.47
2023-02-24T05:04:53.508Z,99938.47
2023-02-24T05:07:22.807Z,99933.03
2023-02-24T05:09:58.246Z,99934.91
2023-02-24T05:12:31.949Z,99928.44
2023-02-24T05:15:18.923Z,99916.09
2023-02-24T05:17:56.288Z,99917.28
2023-02-24T05:26:32.211Z,99915.63
2023-02-24T05:31:42.651Z,99906.31
2023-02-24T05:34:26.883Z,99899.88
2023-02-24T05:37:21.424Z,99891.06
2023-02-24T05:43:15.394Z,99883.47
2023-02-24T05:45:48.282Z,99882.81
2023-02-24T05:48:18.764Z,99881.13
2023-02-24T05:50:58.018Z,99868.13
2023-02-24T05:53:25.400Z,99860.16
2023-02-24T05:56:13.980Z,99869.41
2023-02-24T05:58:59.192Z,99873.19
2023-02-24T06:01:43.924Z,99879.47
2023-02-24T06:04:36.430Z,99875.22
2023-02-24T06:07:28.162Z,99864.56
2023-02-24T06:10:11.586Z,99861.00
2023-02-24T06:13:01.342Z,99860.16
2023-02-24T06:15:39.148Z,99856.44
2023-02-24T06:18:07.038Z,99852.66
2023-02-24T06:20:56.334Z,99855.38
2023-02-24T06:23:31.196Z,99847.63
2023-02-24T06:26:19.558Z,99850.31
2023-02-24T06:28:48.076Z,99843.72
2023-02-24T06:31:18.306Z,99851.00
2023-02-24T06:34:04.640Z,99849.63
2023-02-24T06:36:53.784Z,99846.91
2023-02-24T06:39:22.588Z,99851.47
2023-02-24T06:44:58.688Z,99853.81
2023-02-24T06:48:08.505Z,99851.13
2023-02-24T06:50:41.987Z,99864.25
2023-02-24T06:53:33.526Z,99859.47
2023-02-24T06:56:07.099Z,99854.34
2023-02-24T06:58:37.817Z,99856.19
2023-02-24T07:01:12.718Z,99858.75
2023-02-24T07:03:47.486Z,99866.03
2023-02-24T07:06:28.212Z,99866.88
2023-02-24T07:09:02.317Z,99870.25
2023-02-24T07:11:46.949Z,99870.06
2023-02-24T07:14:42.788Z,99867.84
2023-02-24T07:17:22.400Z,99864.75
2023-02-24T07:20:02.131Z,99869.44
2023-02-24T07:22:38.224Z,99861.78
2023-02-24T07:25:33.342Z,99859.56
2023-02-24T07:28:17.104Z,99851.50
2023-02-24T07:30:51.461Z,99860.66
2023-02-24T07:33:27.514Z,99856.94
2023-02-24T07:36:08.941Z,99858.25
2023-02-24T07:38:39.736Z,99860.59
2023-02-24T07:41:12.361Z,99857.50
2023-02-24T07:43:40.632Z,99857.31
2023-02-24T07:46:15.986Z,99849.66
2023-02-24T07:48:42.760Z,99861.69
2023-02-24T07:51:14.739Z,99854.88
2023-02-24T07:53:44.102Z,99841.75
2023-02-24T07:56:18.755Z,99846.38
2023-02-24T07:58:51.813Z,99852.63
2023-02-24T08:01:24.895Z,99851.72
2023-02-24T08:04:07.977Z,99841.31
2023-02-24T08:06:45.467Z,99832.16
2023-02-24T08:09:20.174Z,99847.13
2023-02-24T08:11:55.154Z,99851.84
2023-02-24T08:14:34.872Z,99843.31
2023-02-24T08:17:05.349Z,99839.56
2023-02-24T08:19:33.475Z,99837.88
2023-02-24T08:22:19.301Z,99837.03
2023-02-24T08:24:50.094Z,99821.97
2023-02-24T08:27:21.833Z,99818.56
2023-02-24T08:29:59.962Z,99820.56
2023-02-24T08:32:45.006Z,99812.88
2023-02-24T08:35:17.029Z,99818.47
2023-02-24T08:37:48.271Z,99816.69
2023-02-24T08:40:49.661Z,99810.88
2023-02-24T08:43:24.949Z,99810.97
2023-02-24T08:45:59.345Z,99813.50
2023-02-24T08:48:38.183Z,99801.88
2023-02-24T08:51:09.838Z,99803.63
2023-02-24T08:53:40.435Z,99800.78
2023-02-24T08:56:11.497Z,99797.31
2023-02-24T08:58:49.383Z,99795.63
2023-02-24T09:01:24.132Z,99791.44
2023-02-24T09:03:54.430Z,99789.28
2023-02-24T09:06:25.837Z,99805.03
2023-02-24T09:09:15.353Z,99789.44
2023-02-24T09:11:44.689Z,99795.97
2023-02-24T09:14:25.988Z,99793.13
2023-02-24T09:17:02.466Z,99790.34
2023-02-24T09:19:51.920Z,99786.91
2023-02-24T09:22:41.828Z,99779.25
2023-02-24T09:25:40.590Z,99780.19
2023-02-24T09:28:24.957Z,99770.78
2023-02-24T09:31:00.306Z,99773.63
2023-02-24T09:33:41.152Z,99764.13
2023-02-24T09:36:13.141Z,99757.03
2023-02-24T09:39:01.238Z,99749.25
2023-02-24T09:41:54.836Z,99743.41
2023-02-24T09:44:36.546Z,99752.69
2023-02-24T09:47:13.429Z,99756.44
2023-02-24T09:49:59.044Z,99746.38
2023-02-24T09:52:43.629Z,99754.81
2023-02-24T09:55:25.082Z,99727.66
2023-02-24T09:58:18.956Z,99754.25
2023-02-24T10:01:20.949Z,99739.38
2023-02-24T10:04:14.884Z,99745.25
2023-02-24T10:06:50.233Z,99736.09
2023-02-24T10:09:35.860Z,99736.34
2023-02-24T10:12:11.736Z,99726.91
2023-02-24T10:15:19.101Z,99732.13
2023-02-24T10:17:58.137Z,99722.72
2023-02-24T10:20:31.222Z,99730.50
2023-02-24T10:23:09.719Z,99714.16
2023-02-24T10:25:53.775Z,99724.50
2023-02-24T10:28:51.062Z,99742.31
2023-02-24T10:31:46.056Z,99730.50
2023-02-24T10:34:20.857Z,99716.69
2023-02-24T10:36:50.342Z,99709.78
2023-02-24T10:39:21.098Z,99712.94
2023-02-24T10:42:15.645Z,99701.47
2023-02-24T10:45:02.237Z,99706.28
2023-02-24T10:47:33.165Z,99702.50
2023-02-24T10:50:12.582Z,99681.06
2023-02-24T10:52:56.497Z,99698.72
2023-02-24T10:55:45.920Z,99697.25
2023-02-24T10:58:27.837Z,99710.47
2023-02-24T11:01:20.937Z,99682.97
2023-02-24T11:04:23.929Z,99679.59
2023-02-24T11:06:53.912Z,99674.34
2023-02-24T11:09:27.793Z,99678.13
2023-02-24T11:12:31.539Z,99645.31
2023-02-24T11:15:23.225Z,99664.69
2023-02-24T11:17:56.987Z,99652.47
2023-02-24T11:20:48.359Z,99659.16
2023-02-24T11:23:29.284Z,99647.19
2023-02-24T11:26:00.965Z,99647.00
2023-02-24T11:28:59.545Z,99616.13
2023-02-24T11:31:44.428Z,99606.66
2023-02-24T11:34:18.775Z,99605.34
2023-02-24T11:37:14.470Z,99622.97
2023-02-24T11:40:01.535Z,99604.22
2023-02-24T11:42:52.403Z,99592.25
2023-02-24T11:45:40.156Z,99595.59
2023-02-24T11:48:16.030Z,99581.81
2023-02-24T11:51:20.102Z,99563.75
2023-02-24T11:54:01.951Z,99578.75
2023-02-24T11:56:35.055Z,99582.81
2023-02-24T11:59:14.038Z,99569.78
2023-02-24T12:01:59.192Z,99573.63
2023-02-24T12:04:46.574Z,99554.88
2023-02-24T12:07:12.972Z,99562.56
2023-02-24T12:09:54.909Z,99537.19
2023-02-24T12:12:32.276Z,99540.47
2023-02-24T12:15:03.588Z,99535.63
2023-02-24T12:17:36.688Z,99536.06
2023-02-24T12:20:14.217Z,99488.28
2023-02-24T12:22:51.491Z,99515.88
2023-02-24T12:25:23.988Z,99492.00
2023-02-24T12:28:11.649Z,99492.69
2023-02-24T12:30:49.915Z,99479.03
2023-02-24T12:33:43.691Z,99455.03
2023-02-24T12:36:15.699Z,99461.94
2023-02-24T12:38:51.134Z,99451.72
2023-02-24T12:41:29.842Z,99449.19
2023-02-24T12:44:17.781Z,99459.66
2023-02-24T12:46:52.503Z,99446.16
2023-02-24T12:49:21.803Z,99426.81
2023-02-24T12:52:13.174Z,99454.81
2023-02-24T12:54:53.581Z,99462.69
2023-02-24T12:57:31.011Z,99451.00
2023-02-24T13:00:06.485Z,99429.69
2023-02-24T13:02:56.964Z,99442.66
2023-02-24T13:05:43.164Z,99439.06
2023-02-24T13:08:45.731Z,99418.91
2023-02-24T13:11:27.514Z,99415.94
2023-02-24T13:14:16.541Z,99430.09
2023-02-24T13:16:43.157Z,99437.25
2023-02-24T13:19:29.837Z,99405.88
2023-02-24T13:22:06.317Z,99409.25
2023-02-24T13:24:33.668Z,99415.53
2023-02-24T13:27:13.243Z,99379.53
2023-02-24T13:30:20.005Z,99359.91
2023-02-24T13:33:06.602Z,99347.31
2023-02-24T13:35:37.056Z,99371.78
2023-02-24T13:38:32.806Z,99337.88
2023-02-24T13:41:30.048Z,99349.28
2023-02-24T13:44:19.963Z,99344.81
2023-02-24T13:47:28.943Z,99347.66
2023-02-24T13:50:10.779Z,99333.72
2023-02-24T13:52:43.086Z,99327.41
2023-02-24T13:55:30.655Z,99333.13
2023-02-24T13:58:08.750Z,99330.28
2023-02-24T14:00:53.956Z,99338.53
2023-02-24T14:03:26.814Z,99342.13
2023-02-24T14:05:53.592Z,99335.66
2023-02-24T14:08:41.134Z,99331.34
2023-02-24T14:11:21.331Z,99324.75
2023-02-24T14:13:56.658Z,99329.38
2023-02-24T14:16:35.889Z,99346.47
2023-02-24T14:19:03.631Z,99337.69
2023-02-24T14:21:34.871Z,99345.88
2023-02-24T14:24:05.261Z,99368.97
2023-02-24T14:26:41.868Z,99368.13
2023-02-24T14:29:08.907Z,99369.34
2023-02-24T14:31:38.633Z,99372.94
2023-02-24T14:34:16.264Z,99376.03
2023-02-24T14:36:45.248Z,99344.56
2023-02-24T14:39:22.138Z,99345.72
2023-02-24T14:41:50.629Z,99333.59
2023-02-24T14:44:26.505Z,99354.75
2023-02-24T14:47:02.789Z,99337.59
2023-02-24T14:49:33.498Z,99294.22
2023-02-24T14:52:02.580Z,99261.03
2023-02-24T14:54:48.434Z,99284.44
2023-02-24T14:57:22.201Z,99261.34
2023-02-24T14:59:52.879Z,99240.53
2023-02-24T15:02:25.539Z,99234.09
2023-02-24T15:04:54.507Z,99238.16
2023-02-24T15:07:29.776Z,99213.75
2023-02-24T15:09:57.399Z,99220.63
2023-02-24T15:12:35.904Z,99213.94
2023-02-24T15:15:09.158Z,99225.81
2023-02-24T15:17:41.020Z,99217.81
2023-02-24T15:20:26.135Z,99225.72
2023-02-24T15:22:52.653Z,99216.50
2023-02-24T15:25:28.122Z,99223.88
2023-02-24T15:28:03.564Z,99291.31
2023-02-24T15:30:39.817Z,99268.19
2023-02-24T15:33:29.101Z,99279.09
2023-02-24T15:35:58.994Z,99310.66
2023-02-24T15:38:35.136Z,99312.63
2023-02-24T15:41:04.289Z,99297.31
2023-02-24T15:43:32.031Z,99339.16
2023-02-24T15:45:58.527Z,99341.69
2023-02-24T15:48:31.564Z,99335.44
2023-02-24T15:51:05.436Z,99324.13
2023-02-24T15:53:34.187Z,99322.06
2023-02-24T15:56:00.786Z,99329.66
2023-02-24T15:58:30.588Z,99306.19
2023-02-24T16:00:57.142Z,99291.50
2023-02-24T16:03:23.586Z,99283.59
2023-02-24T16:05:49.988Z,99305.19
2023-02-24T16:08:19.202Z,99304.41
2023-02-24T16:10:46.495Z,99281.78
2023-02-24T16:13:20.311Z,99278.28
2023-02-24T16:15:46.779Z,99289.19
2023-02-24T16:18:21.931Z,99309.34
2023-02-24T16:20:54.866Z,99273.31
2023-02-24T16:23:22.478Z,99283.19
2023-02-24T16:25:51.470Z,99266.25
2023-02-24T16:28:20.279Z,99270.66
2023-02-24T16:30:49.910Z,99279.28
2023-02-24T16:33:18.436Z,99289.53
2023-02-24T16:35:45.444Z,99254.19
2023-02-24T16:38:16.894Z,99265.94
2023-02-24T16:40:45.333Z,99273.47
2023-02-24T16:43:13.418Z,99264.69
2023-02-24T16:45:43.478Z,99252.38
2023-02-24T16:48:19.336Z,99250.69
2023-02-24T16:50:45.965Z,99267.63
2023-02-24T16:53:20.167Z,99267.88
2023-02-24T16:55:47.204Z,99255.53
2023-02-24T16:58:14.630Z,99246.56
2023-02-24T17:00:46.186Z,99244.66
2023-02-24T17:03:16.608Z,99258.69
2023-02-24T17:05:44.340Z,99258.69
2023-02-24T17:08:11.560Z,99250.97
2023-02-24T17:10:39.930Z,99264.38
2023-02-24T17:13:06.861Z,99247.19
2023-02-24T17:15:36.465Z,99246.16
2023-02-24T17:18:02.948Z,99258.91
2023-02-24T17:20:29.706Z,99231.94
2023-02-24T17:22:56.283Z,99248.66
2023-02-24T17:25:25.830Z,99243.84
2023-02-24T17:27:54.201Z,99239.88
2023-02-24T17:30:24.190Z,99238.19
2023-02-24T17:32:50.946Z,99247.41
2023-02-24T17:35:20.484Z,99247.19
2023-02-24T17:37:47.075Z,99247.63
2023-02-24T17:40:14.248Z,99252.03
2023-02-24T17:42:41.264Z,99244.06
2023-02-24T17:45:08.671Z,99246.13
2023-02-24T17:47:35.520Z,99255.97
2023-02-24T17:50:02.898Z,99246.34
2023-02-24T17:52:31.610Z,99250.97
2023-02-24T17:54:58.420Z,99250.97
2023-02-24T17:57:27.093Z,99255.97
2023-02-24T17:59:55.705Z,99260.38
2023-02-24T18:02:22.420Z,99257.84
2023-02-24T18:04:49.703Z,99253.88
2023-02-24T18:07:16.421Z,99278.56
2023-02-24T18:09:42.777Z,99281.53
2023-02-24T18:12:09.196Z,99300.16
2023-02-24T18:14:35.973Z,99316.69
2023-02-24T18:17:04.948Z,99323.81
2023-02-24T18:19:31.400Z,99328.19
2023-02-24T18:21:58.006Z,99352.91
2023-02-24T18:24:24.430Z,99357.50
2023-02-24T18:26:50.862Z,99360.22
2023-02-24T18:29:17.318Z,99366.09
2023-02-24T18:31:43.885Z,99370.69
2023-02-24T18:34:10.456Z,99363.59
2023-02-24T18:36:36.986Z,99353.94
2023-02-24T18:39:03.952Z,99373.63
2023-02-24T18:41:30.818Z,99379.47
2023-02-24T18:43:59.083Z,99377.41
2023-02-24T18:46:26.720Z,99380.31
2023-02-24T18:48:56.438Z,99388.69
2023-02-24T18:51:29.182Z,99386.16
2023-02-24T18:53:58.169Z,99394.09
2023-02-24T18:56:29.483Z,99388.19
2023-02-24T18:58:58.164Z,99392.34
2023-02-24T19:01:34.020Z,99388.13
2023-02-24T19:04:01.062Z,99374.50
2023-02-24T19:06:29.594Z,99357.34
2023-02-24T19:09:16.630Z,99346.19
2023-02-24T19:11:43.211Z,99330.25
2023-02-24T19:14:13.386Z,99326.88
2023-02-24T19:16:40.442Z,99311.19
2023-02-24T19:19:06.986Z,99307.78
2023-02-24T19:21:34.596Z,99296.25
2023-02-24T19:24:08.343Z,99284.34
2023-02-24T19:26:34.973Z,99286.19
2023-02-24T19:29:01.669Z,99278.19
2023-02-24T19:31:32.012Z,99278.59
2023-02-24T19:34:01.244Z,99276.88
2023-02-24T19:36:29.397Z,99282.91
2023-02-24T19:38:56.166Z,99284.34
2023-02-24T19:41:23.199Z,99293.91
2023-02-24T19:43:49.889Z,99295.97
2023-02-24T19:46:17.649Z,99294.03
2023-02-24T19:49:07.268Z,99305.22
2023-02-24T19:51:33.737Z,99300.13
2023-02-24T19:54:05.794Z,99322.34
2023-02-24T19:56:35.727Z,99337.97
2023-02-24T19:59:07.729Z,99341.22
2023-02-24T20:01:34.388Z,99331.94
2023-02-24T20:04:21.628Z,99335.38
2023-02-24T20:06:48.803Z,99348.72
2023-02-24T20:09:21.703Z,99347.31
2023-02-24T20:11:52.111Z,99347.81
2023-02-24T20:14:21.731Z,99350.25
2023-02-24T20:16:48.623Z,99358.84
2023-02-24T20:19:19.987Z,99358.19
2023-02-24T20:21:47.654Z,99352.13
2023-02-24T20:24:15.880Z,99346.44
2023-02-24T20:26:47.332Z,99348.84
2023-02-24T20:29:15.454Z,99358.19
2023-02-24T20:31:42.682Z,99339.78
2023-02-24T20:34:11.144Z,99342.41
2023-02-24T20:36:37.539Z,99348.19
2023-02-24T20:39:06.671Z,99350.22
2023-02-24T20:41:33.751Z,99339.53
2023-02-24T20:44:00.412Z,99335.50
2023-02-24T20:46:30.138Z,99337.75
2023-02-24T20:49:01.879Z,99338.75
2023-02-24T20:51:30.039Z,99342.47
2023-02-24T20:53:58.598Z,99346.88
2023-02-24T20:56:29.873Z,99336.59
2023-02-24T20:59:01.754Z,99341.16
2023-02-24T21:01:30.506Z,99335.94
2023-02-24T21:03:57.136Z,99340.31
2023-02-24T21:06:24.877Z,99337.81
2023-02-24T21:08:53.456Z,99337.81
2023-02-24T21:11:21.176Z,99335.75
2023-02-24T21:13:49.889Z,99336.97
2023-02-24T21:16:18.594Z,99338.97
2023-02-24T21:18:47.805Z,99346.56
2023-02-24T21:21:15.355Z,99344.06
2023-02-24T21:23:43.415Z,99348.63
2023-02-24T21:26:11.420Z,99339.13
2023-02-24T21:28:40.512Z,99338.47
2023-02-24T21:31:15.300Z,99352.19
2023-02-24T21:33:42.578Z,99340.78
2023-02-24T21:36:13.546Z,99343.88
2023-02-24T21:38:41.789Z,99331.56
2023-02-24T21:41:14.834Z,99339.47
2023-02-24T21:43:44.335Z,99336.47
2023-02-24T21:46:13.242Z,99335.38
2023-02-24T21:48:41.959Z,99335.13
2023-02-24T21:51:13.651Z,99345.59
2023-02-24T21:53:43.431Z,99345.59
2023-02-24T21:56:18.920Z,99347.84
2023-02-24T21:58:54.416Z,99347.19
2023-02-24T22:01:25.474Z,99338.03
2023-02-24T22:04:02.826Z,99339.78
2023-02-24T22:06:32.037Z,99337.94
2023-02-24T22:09:03.700Z,99324.47
2023-02-24T22:11:37.367Z,99332.59
2023-02-24T22:14:07.052Z,99325.88
2023-02-24T22:16:33.639Z,99329.41
2023-02-24T22:19:00.263Z,99339.75
2023-02-24T22:21:28.775Z,99336.88
2023-02-24T22:23:57.870Z,99336.88
2023-02-24T22:26:28.621Z,99337.72
2023-02-24T22:29:01.322Z,99338.06
2023-02-24T22:31:30.828Z,99345.53
2023-02-24T22:33:58.653Z,99345.63
2023-02-24T22:36:30.886Z,99350.41
2023-02-24T22:38:59.470Z,99350.56
2023-02-24T22:41:31.329Z,99350.03
2023-02-24T22:44:01.718Z,99350.19
2023-02-24T22:46:34.068Z,99353.47
2023-02-24T22:49:05.750Z,99346.84
2023-02-24T22:51:34.856Z,99352.91
2023-02-24T22:54:01.412Z,99358.78
2023-02-24T22:56:31.328Z,99356.56
2023-02-24T22:58:58.988Z,99357.78
2023-02-24T23:01:31.333Z,99365.25
2023-02-24T23:04:05.818Z,99366.66
2023-02-24T23:06:33.054Z,99360.78
2023-02-24T23:09:07.265Z,99358.25
2023-02-24T23:11:39.530Z,99367.59
2023-02-24T23:14:23.531Z,99374.22
2023-02-24T23:16:55.589Z,99376.03
2023-02-24T23:19:22.892Z,99374.00
2023-02-24T23:21:53.904Z,99395.72
2023-02-24T23:24:23.997Z,99400.69
2023-02-24T23:26:53.929Z,99400.22
2023-02-24T23:29:30.888Z,99402.66
2023-02-24T23:31:58.124Z,99398.56
2023-02-24T23:34:27.028Z,99412.56
2023-02-24T23:36:55.159Z,99408.34
2023-02-24T23:39:24.099Z,99411.72
2023-02-24T23:41:57.066Z,99419.94
2023-02-24T23:44:30.031Z,99419.47
2023-02-24T23:46:58.205Z,99417.78
2023-02-24T23:49:24.824Z,99428.59
2023-02-24T23:51:51.510Z,99431.28
2023-02-24T23:54:23.288Z,99435.84
2023-02-24T23:56:50.043Z,99430.81
2023-02-24T23:59:16.990Z,99438.22
